Time;durP1;ratioP1;P1;durP2;ratioP2;P2;SDS_P1;SDS_P2;PMS_P1;PMS_P2;Temp;Humidity;BMP_temperature;BMP_pressure;BME280_temperature;BME280_humidity;BME280_pressure;Samples;Min_cycle;Max_cycle;Signal;HPM_P1;HPM_P2
2021/08/06 00:00:31;;;;;;;1.63;0.47;;;;;;;14.87;100.00;97725.59;6256051;22;20022;-78
2021/08/06 00:03:35;;;;;;;3.80;0.90;;;;;;;14.87;100.00;97722.78;6255529;22;20081;-78
2021/08/06 00:06:39;;;;;;;0.82;0.28;;;;;;;14.90;100.00;97732.88;6267706;22;20286;-76
2021/08/06 00:09:42;;;;;;;2.80;0.82;;;;;;;14.85;100.00;97722.59;6262161;22;20037;-77
2021/08/06 00:12:45;;;;;;;13.18;1.35;;;;;;;14.86;100.00;97723.31;6263073;22;20033;-77
2021/08/06 00:15:48;;;;;;;1.05;0.47;;;;;;;14.85;100.00;97717.00;6266299;22;20096;-77
2021/08/06 00:18:52;;;;;;;2.38;0.70;;;;;;;14.87;100.00;97719.97;6265494;22;21014;-76
2021/08/06 00:21:55;;;;;;;1.45;0.38;;;;;;;14.84;100.00;97721.09;6261913;22;21062;-78
2021/08/06 00:24:58;;;;;;;2.28;0.47;;;;;;;14.84;100.00;97714.72;6263729;22;20058;-77
2021/08/06 00:28:01;;;;;;;5.38;0.40;;;;;;;14.79;100.00;97713.59;6265018;22;20041;-77
2021/08/06 00:31:04;;;;;;;2.10;0.47;;;;;;;14.77;100.00;97715.47;6267970;22;20026;-77
2021/08/06 00:34:07;;;;;;;4.78;1.05;;;;;;;14.75;100.00;97712.47;6259237;22;20026;-79
2021/08/06 00:37:11;;;;;;;3.95;0.77;;;;;;;14.74;100.00;97714.53;6257140;22;20021;-78
2021/08/06 00:40:14;;;;;;;1.67;0.55;;;;;;;14.69;100.00;97715.44;6257251;22;20018;-78
2021/08/06 00:43:17;;;;;;;2.47;1.55;;;;;;;14.69;100.00;97712.63;6259095;22;20188;-77
2021/08/06 00:46:20;;;;;;;2.35;0.80;;;;;;;14.71;100.00;97715.63;6265661;22;20026;-77
2021/08/06 00:49:23;;;;;;;1.92;0.80;;;;;;;14.66;100.00;97710.94;6259804;22;21038;-78
2021/08/06 00:52:27;;;;;;;7.55;0.98;;;;;;;14.63;100.00;97706.47;6256837;22;20669;-78
2021/08/06 00:55:30;;;;;;;3.22;0.77;;;;;;;14.65;100.00;97703.84;6238716;22;20971;-78
2021/08/06 00:58:33;;;;;;;0.85;0.40;;;;;;;14.60;100.00;97701.94;6257617;22;20172;-79
2021/08/06 01:01:36;;;;;;;11.70;1.02;;;;;;;14.59;100.00;97703.28;6259122;22;20022;-78
2021/08/06 01:04:59;;;;;;;1.35;0.40;;;;;;;14.60;100.00;97701.94;6263087;22;20513;-78
2021/08/06 01:08:21;;;;;;;1.75;0.60;;;;;;;14.66;100.00;97694.13;6264645;22;20096;-78
2021/08/06 01:11:27;;;;;;;3.75;1.33;;;;;;;14.69;100.00;97695.81;6258706;22;20049;-78
2021/08/06 01:14:37;;;;;;;3.80;0.57;;;;;;;14.66;100.00;97696.19;6241620;22;20022;-78
2021/08/06 01:17:44;;;;;;;2.42;0.65;;;;;;;14.62;100.00;97690.94;6259572;22;20026;-78
2021/08/06 01:20:50;;;;;;;1.27;0.88;;;;;;;14.60;100.00;97696.34;6241934;22;20022;-78
2021/08/06 01:23:57;;;;;;;2.15;0.82;;;;;;;14.60;100.00;97692.78;6261013;22;20026;-78
2021/08/06 01:27:00;;;;;;;2.92;0.35;;;;;;;14.65;100.00;97687.03;6238431;22;20096;-79
2021/08/06 01:30:06;;;;;;;5.25;0.88;;;;;;;14.64;100.00;97690.41;6238937;22;20076;-77
2021/08/06 01:33:10;;;;;;;1.90;0.68;;;;;;;14.67;100.00;97686.47;6256473;22;20025;-78
2021/08/06 01:36:14;;;;;;;2.47;0.65;;;;;;;14.73;100.00;97687.81;6238873;22;20046;-78
2021/08/06 01:39:18;;;;;;;3.38;0.77;;;;;;;14.72;100.00;97691.91;6255923;22;20181;-78
2021/08/06 01:42:48;;;;;;;4.60;1.65;;;;;;;14.75;100.00;97690.78;6256307;22;20808;-79
2021/08/06 01:46:02;;;;;;;3.00;0.82;;;;;;;14.77;100.00;97688.19;6256948;22;20080;-80
2021/08/06 01:49:52;;;;;;;2.22;0.80;;;;;;;14.79;100.00;97684.84;6238701;22;20021;-78
2021/08/06 01:53:00;;;;;;;1.70;0.90;;;;;;;14.77;100.00;97688.19;6255746;22;20301;-77
2021/08/06 01:56:08;;;;;;;2.65;1.13;;;;;;;14.75;100.00;97681.66;6259244;22;20026;-78
2021/08/06 01:59:12;;;;;;;2.40;0.98;;;;;;;14.74;100.00;97678.09;6259858;22;20621;-77
2021/08/06 02:02:15;;;;;;;9.25;0.50;;;;;;;14.71;100.00;97684.81;6255750;22;20022;-77
2021/08/06 02:05:22;;;;;;;1.65;0.75;;;;;;;14.71;100.00;97678.44;6253850;22;20023;-77
2021/08/06 02:08:25;;;;;;;1.05;0.65;;;;;;;14.73;100.00;97682.19;6254823;22;20027;-77
2021/08/06 02:11:28;;;;;;;0.65;0.40;;;;;;;14.69;100.00;97676.22;6252765;22;20097;-79
2021/08/06 02:14:32;;;;;;;2.60;1.23;;;;;;;14.63;100.00;97672.84;6252241;22;20026;-78
2021/08/06 02:17:37;;;;;;;1.20;0.45;;;;;;;14.58;100.00;97662.53;6234183;22;21128;-78
2021/08/06 02:20:41;;;;;;;1.13;0.80;;;;;;;14.53;100.00;97668.31;6234215;22;20033;-78
2021/08/06 02:23:48;;;;;;;6.93;0.68;;;;;;;14.43;100.00;97666.06;6253645;22;20597;-78
2021/08/06 02:26:53;;;;;;;3.03;0.70;;;;;;;14.41;100.00;97673.50;6253389;22;20104;-78
2021/08/06 02:29:59;;;;;;;1.35;0.65;;;;;;;14.43;100.00;97673.69;6254510;22;20542;-78
2021/08/06 02:33:02;;;;;;;3.72;0.52;;;;;;;14.40;100.00;97672.03;6253622;22;20055;-78
2021/08/06 02:36:05;;;;;;;8.50;0.90;;;;;;;14.30;100.00;97659.84;6253628;22;20026;-77
2021/08/06 02:39:24;;;;;;;1.33;0.98;;;;;;;14.32;100.00;97660.03;6253213;22;20188;-77
2021/08/06 02:42:27;;;;;;;1.58;1.30;;;;;;;14.29;100.00;97661.88;6253927;22;20759;-77
2021/08/06 02:45:30;;;;;;;2.33;0.50;;;;;;;14.26;100.00;97657.38;6254490;22;20126;-77
2021/08/06 02:48:33;;;;;;;6.10;0.32;;;;;;;14.29;100.00;97661.16;6254843;22;20057;-77
2021/08/06 02:51:36;;;;;;;6.97;0.95;;;;;;;14.25;100.00;97652.34;6254860;22;20474;-78
2021/08/06 02:54:40;;;;;;;1.70;0.50;;;;;;;14.28;100.00;97651.97;6255828;22;20030;-77
2021/08/06 02:57:43;;;;;;;0.90;0.73;;;;;;;14.26;100.00;97648.97;6254809;22;21198;-76
2021/08/06 03:00:47;;;;;;;0.55;0.10;;;;;;;14.26;100.00;97648.97;6255171;22;20054;-78
2021/08/06 03:03:51;;;;;;;1.15;0.45;;;;;;;14.26;100.00;97645.41;6255338;22;20236;-76
2021/08/06 03:06:54;;;;;;;5.40;1.15;;;;;;;14.24;100.00;97648.03;6255005;22;20038;-76
2021/08/06 03:09:57;;;;;;;1.75;0.40;;;;;;;14.29;100.00;97649.94;6254491;22;20103;-76
2021/08/06 03:13:00;;;;;;;4.20;0.77;;;;;;;14.30;100.00;97641.00;6194013;22;20035;-76
2021/08/06 03:16:04;;;;;;;1.08;0.65;;;;;;;14.33;100.00;97645.50;6193143;22;20111;-76
2021/08/06 03:19:07;;;;;;;1.17;0.50;;;;;;;14.36;100.00;97644.38;6194275;22;20026;-77
2021/08/06 03:22:10;;;;;;;2.42;0.80;;;;;;;14.35;100.00;97636.53;6193886;22;20310;-76
2021/08/06 03:25:13;;;;;;;1.27;0.60;;;;;;;14.37;100.00;97631.13;6193837;22;20028;-77
2021/08/06 03:28:16;;;;;;;2.22;0.70;;;;;;;14.38;100.00;97632.59;6193585;22;20505;-77
2021/08/06 03:31:19;;;;;;;2.28;0.98;;;;;;;14.35;100.00;97625.34;6193597;22;20139;-77
2021/08/06 03:34:22;;;;;;;0.63;0.40;;;;;;;14.33;100.00;97628.69;6203926;22;20782;-77
2021/08/06 03:37:26;;;;;;;5.50;0.80;;;;;;;14.38;100.00;97629.81;6193230;22;20109;-77
2021/08/06 03:40:29;;;;;;;3.72;0.60;;;;;;;14.35;100.00;97625.34;6193097;22;20031;-77
2021/08/06 03:43:32;;;;;;;2.30;0.90;;;;;;;14.35;100.00;97616.94;6192550;22;20714;-77
2021/08/06 03:46:35;;;;;;;6.00;0.73;;;;;;;14.37;100.00;97625.53;6204280;22;20119;-77
2021/08/06 03:49:38;;;;;;;1.00;0.55;;;;;;;14.38;100.00;97624.97;6208002;22;20023;-77
2021/08/06 03:52:42;;;;;;;4.68;0.75;;;;;;;14.41;100.00;97623.09;6200076;22;20109;-77
2021/08/06 03:55:45;;;;;;;17.42;0.88;;;;;;;14.41;100.00;97623.09;6200741;22;20024;-77
2021/08/06 03:58:49;;;;;;;13.82;1.30;;;;;;;14.42;100.00;97619.00;6198320;22;20208;-77
2021/08/06 04:01:52;;;;;;;5.50;1.17;;;;;;;14.42;100.00;97624.59;6199660;22;20023;-77
2021/08/06 04:04:55;;;;;;;3.00;0.88;;;;;;;14.42;100.00;97610.59;6196659;22;20043;-77
2021/08/06 04:07:58;;;;;;;7.20;1.65;;;;;;;14.43;100.00;97620.50;6196223;22;20174;-77
2021/08/06 04:11:01;;;;;;;2.78;1.10;;;;;;;14.43;100.00;97612.84;6215659;22;20084;-77
2021/08/06 04:14:05;;;;;;;1.27;0.65;;;;;;;14.45;100.00;97617.88;6257112;22;20108;-77
2021/08/06 04:17:08;;;;;;;3.63;0.85;;;;;;;14.47;100.00;97614.53;6257987;22;20122;-78
2021/08/06 04:20:11;;;;;;;2.63;1.10;;;;;;;14.46;100.00;97611.00;6258745;22;21076;-77
2021/08/06 04:23:15;;;;;;;3.95;1.00;;;;;;;14.50;100.00;97613.41;6256659;22;20030;-77
2021/08/06 04:26:18;;;;;;;4.22;0.70;;;;;;;14.48;100.00;97611.19;6261794;22;20022;-77
2021/08/06 04:29:21;;;;;;;2.20;0.95;;;;;;;14.45;100.00;97606.69;6267972;22;20053;-77
2021/08/06 04:32:24;;;;;;;2.60;0.45;;;;;;;14.46;100.00;97613.78;6257091;22;20566;-77
2021/08/06 04:35:28;;;;;;;0.95;0.85;;;;;;;14.48;100.00;97621.63;6254811;22;20059;-77
2021/08/06 04:38:31;;;;;;;4.57;0.95;;;;;;;14.47;100.00;97612.47;6257310;22;20018;-77
2021/08/06 04:41:34;;;;;;;0.13;0.13;;;;;;;14.48;100.00;97611.19;6259638;22;20030;-78
2021/08/06 04:44:38;;;;;;;3.75;0.40;;;;;;;14.48;100.00;97611.19;6257434;22;21094;-78
2021/08/06 04:47:47;;;;;;;1.15;0.60;;;;;;;14.49;100.00;97615.47;6253945;22;20049;-78
2021/08/06 04:50:50;;;;;;;0.47;0.15;;;;;;;14.46;100.00;97613.78;6254819;22;20021;-78
2021/08/06 04:53:54;;;;;;;1.67;0.22;;;;;;;14.47;100.00;97606.88;6259175;22;20030;-78
2021/08/06 04:56:57;;;;;;;0.77;0.10;;;;;;;14.47;100.00;97601.25;6256092;22;20074;-78
2021/08/06 05:00:00;;;;;;;0.75;0.55;;;;;;;14.47;100.00;97609.66;6235395;22;21160;-78
2021/08/06 05:03:03;;;;;;;3.83;0.77;;;;;;;14.49;100.00;97607.06;6253457;22;20092;-77
2021/08/06 05:06:06;;;;;;;1.65;0.52;;;;;;;14.49;100.00;97601.47;6254535;22;20046;-77
2021/08/06 05:09:09;;;;;;;5.93;0.40;;;;;;;14.59;100.00;97594.03;6253520;22;20073;-78
2021/08/06 05:12:13;;;;;;;1.45;0.40;;;;;;;14.47;100.00;97609.66;6252739;22;20689;-78
2021/08/06 05:15:17;;;;;;;5.60;0.40;;;;;;;14.50;100.00;97607.81;6253448;22;20088;-78
2021/08/06 05:18:20;;;;;;;2.60;0.20;;;;;;;14.58;100.00;97602.97;6252594;22;20771;-75
2021/08/06 05:21:23;;;;;;;5.95;0.82;;;;;;;14.65;100.00;97607.84;6253980;22;20306;-76
2021/08/06 05:24:26;;;;;;;4.30;0.25;;;;;;;14.69;100.00;97597.00;6255104;22;20026;-78
2021/08/06 05:27:30;;;;;;;0.75;0.40;;;;;;;14.60;100.00;97603.16;6254549;22;20094;-77
2021/08/06 05:30:33;;;;;;;0.47;0.15;;;;;;;14.60;100.00;97603.16;6253339;22;20026;-77
2021/08/06 05:33:36;;;;;;;1.30;0.57;;;;;;;14.58;100.00;97597.38;6251564;22;20034;-77
2021/08/06 05:36:39;;;;;;;3.65;0.65;;;;;;;14.61;100.00;97597.03;6253534;22;20102;-78
2021/08/06 05:39:42;;;;;;;6.93;0.80;;;;;;;14.66;100.00;97593.28;6252604;22;20445;-76
2021/08/06 05:42:45;;;;;;;0.35;0.28;;;;;;;14.71;100.00;97588.78;6254041;22;21098;-76
2021/08/06 05:45:48;;;;;;;0.60;0.30;;;;;;;14.75;100.00;97595.53;6253666;22;20136;-76
2021/08/06 05:48:51;;;;;;;1.45;0.65;;;;;;;14.81;100.00;97586.94;6257510;22;20084;-74
2021/08/06 05:51:54;;;;;;;1.25;0.47;;;;;;;14.82;100.00;97589.19;6252051;22;20022;-75
2021/08/06 05:54:58;;;;;;;1.35;0.43;;;;;;;14.84;100.00;97591.44;6253197;22;21030;-76
2021/08/06 05:58:01;;;;;;;0.90;0.10;;;;;;;14.85;100.00;97593.69;6252066;22;20026;-76
2021/08/06 06:01:04;;;;;;;2.13;0.30;;;;;;;14.87;100.00;97595.91;6252839;22;20054;-76
2021/08/06 06:04:08;;;;;;;0.40;0.20;;;;;;;14.94;100.00;97592.38;6255091;22;20026;-75
2021/08/06 06:07:11;;;;;;;0.52;0.30;;;;;;;15.00;100.00;97602.09;6255000;22;20803;-77
2021/08/06 06:10:19;;;;;;;1.35;0.30;;;;;;;15.03;100.00;97609.38;6253029;22;20109;-77
2021/08/06 06:13:23;;;;;;;3.58;0.65;;;;;;;15.04;100.00;97605.28;6253021;22;20104;-77
2021/08/06 06:16:27;;;;;;;0.35;0.10;;;;;;;15.02;100.00;97607.91;6253957;22;20144;-75
2021/08/06 06:19:30;;;;;;;1.20;0.52;;;;;;;15.07;100.00;97598.53;6253426;22;20122;-75
2021/08/06 06:22:33;;;;;;;0.35;0.28;;;;;;;15.15;100.00;97604.16;6254353;22;20029;-76
2021/08/06 06:25:37;;;;;;;8.57;0.63;;;;;;;15.20;100.00;97603.94;6253948;22;20111;-76
2021/08/06 06:28:40;;;;;;;1.55;0.55;;;;;;;15.21;100.00;97601.91;6254162;22;20022;-76
2021/08/06 06:31:44;;;;;;;2.17;0.30;;;;;;;15.28;100.00;97589.94;6254453;22;20099;-76
2021/08/06 06:34:47;;;;;;;0.90;0.20;;;;;;;15.36;100.00;97595.53;6254638;22;20041;-76
2021/08/06 06:37:51;;;;;;;0.57;0.20;;;;;;;15.39;100.00;97597.97;6236858;22;20017;-76
2021/08/06 06:40:54;;;;;;;5.80;0.57;;;;;;;15.38;100.00;97601.31;6255557;22;20021;-77
2021/08/06 06:43:57;;;;;;;1.90;0.13;;;;;;;15.32;100.00;97606.38;6254503;22;20026;-76
2021/08/06 06:47:00;;;;;;;0.10;0.00;;;;;;;15.25;100.00;97604.31;6255766;22;20680;-77
2021/08/06 06:50:04;;;;;;;5.28;0.88;;;;;;;15.18;100.00;97606.56;6254710;22;20101;-77
2021/08/06 06:53:07;;;;;;;1.50;0.15;;;;;;;15.08;100.00;97611.25;6254090;22;20022;-77
2021/08/06 06:56:10;;;;;;;1.75;0.20;;;;;;;15.01;100.00;97612.00;6252503;22;20782;-76
2021/08/06 06:59:14;;;;;;;0.63;0.20;;;;;;;15.00;100.00;97610.50;6254126;22;20026;-76
2021/08/06 07:02:17;;;;;;;0.10;0.10;;;;;;;14.99;100.00;97614.59;6253866;22;20026;-77
2021/08/06 07:05:21;;;;;;;0.10;0.00;;;;;;;14.95;100.00;97619.84;6253597;22;20030;-76
2021/08/06 07:08:24;;;;;;;4.93;0.30;;;;;;;15.06;100.00;97619.47;6254312;22;20096;-76
2021/08/06 07:11:27;;;;;;;0.30;0.25;;;;;;;15.20;100.00;97622.84;6256218;22;20093;-76
2021/08/06 07:14:30;;;;;;;1.75;0.10;;;;;;;15.39;100.00;97622.44;6255335;22;20614;-76
2021/08/06 07:17:35;;;;;;;2.35;0.20;;;;;;;15.51;100.00;97615.16;6254625;22;21064;-78
2021/08/06 07:20:38;;;;;;;2.38;0.85;;;;;;;15.61;100.00;97618.91;6252598;22;20088;-78
2021/08/06 07:23:41;;;;;;;0.43;0.25;;;;;;;15.79;100.00;97617.72;6254012;22;20108;-77
2021/08/06 07:26:44;;;;;;;1.15;0.10;;;;;;;15.89;100.00;97613.03;6235358;22;20149;-78
2021/08/06 07:29:47;;;;;;;4.18;0.20;;;;;;;15.96;100.00;97622.75;6235234;22;20077;-76
2021/08/06 07:32:51;;;;;;;2.80;0.57;;;;;;;15.98;100.00;97625.72;6254367;22;21051;-77
2021/08/06 07:35:54;;;;;;;2.25;0.40;;;;;;;15.94;100.00;97631.72;6253841;22;20757;-78
2021/08/06 07:38:57;;;;;;;0.57;0.10;;;;;;;15.86;100.00;97628.19;6254953;22;20063;-77
2021/08/06 07:42:01;;;;;;;0.13;0.10;;;;;;;15.86;100.00;97631.00;6256599;22;20085;-77
2021/08/06 07:45:05;;;;;;;0.35;0.10;;;;;;;15.87;100.00;97636.03;6237506;22;20092;-77
2021/08/06 07:48:07;;;;;;;2.45;0.30;;;;;;;15.88;100.00;97637.53;6256070;22;21319;-76
2021/08/06 07:51:10;;;;;;;3.47;0.43;;;;;;;16.04;100.00;97634.69;6256454;22;20320;-75
2021/08/06 07:54:14;;;;;;;0.77;0.20;;;;;;;16.20;100.00;97636.88;6256105;22;20042;-76
2021/08/06 07:57:17;;;;;;;1.75;0.10;;;;;;;16.33;100.00;97639.44;6256042;22;20051;-76
2021/08/06 08:00:20;;;;;;;0.15;0.05;;;;;;;16.44;100.00;97644.63;6253460;22;21049;-76
2021/08/06 08:03:23;;;;;;;3.45;0.35;;;;;;;16.54;100.00;97642.75;6252829;22;20027;-78
2021/08/06 08:06:26;;;;;;;1.30;0.20;;;;;;;16.65;100.00;97647.19;6253169;22;20053;-78
2021/08/06 08:09:29;;;;;;;0.10;0.10;;;;;;;16.75;100.00;97650.13;6254646;22;20026;-77
2021/08/06 08:12:33;;;;;;;1.58;0.35;;;;;;;16.90;100.00;97650.78;6254666;22;20682;-77
2021/08/06 08:15:38;;;;;;;0.13;0.05;;;;;;;17.03;100.00;97649.75;6253043;22;20021;-77
2021/08/06 08:18:41;;;;;;;1.27;0.10;;;;;;;16.97;100.00;97643.59;6252954;22;20025;-77
2021/08/06 08:21:45;;;;;;;0.68;0.10;;;;;;;17.06;100.00;97659.84;6234352;22;20030;-77
2021/08/06 08:24:48;;;;;;;2.85;0.15;;;;;;;17.19;100.00;97651.13;6254231;22;20080;-78
2021/08/06 08:27:51;;;;;;;0.20;0.10;;;;;;;17.37;100.00;97659.03;6254264;22;20073;-78
2021/08/06 08:30:54;;;;;;;1.05;0.05;;;;;;;17.47;100.00;97659.16;6250547;22;20100;-78
2021/08/06 08:33:57;;;;;;;6.55;0.50;;;;;;;17.58;100.00;97666.41;6252205;22;20045;-78
2021/08/06 08:37:00;;;;;;;0.63;0.15;;;;;;;17.61;100.00;97666.00;6253369;22;20050;-75
2021/08/06 08:40:05;;;;;;;1.63;0.20;;;;;;;17.53;100.00;97675.84;6254101;22;20026;-75
2021/08/06 08:43:09;;;;;;;1.33;0.40;;;;;;;17.40;100.00;97671.22;6262102;22;20033;-77
2021/08/06 08:46:12;;;;;;;5.82;0.20;;;;;;;17.45;100.00;97667.44;6254585;22;20104;-76
2021/08/06 08:49:16;;;;;;;0.20;0.10;;;;;;;17.39;100.00;97672.53;6261481;22;20091;-76
2021/08/06 08:52:20;;;;;;;0.13;0.00;;;;;;;17.39;100.00;97678.16;6260236;22;20668;-76
2021/08/06 08:55:23;;;;;;;0.28;0.05;;;;;;;17.27;100.00;97682.75;6260713;22;20026;-76
2021/08/06 08:58:27;;;;;;;0.43;0.22;;;;;;;17.26;100.00;97676.38;6253413;22;20018;-77
2021/08/06 09:01:30;;;;;;;0.20;0.10;;;;;;;17.24;100.00;97683.91;6252384;22;20018;-76
2021/08/06 09:04:34;;;;;;;5.68;0.20;;;;;;;17.22;100.00;97687.28;6251753;22;20084;-76
2021/08/06 09:07:38;;;;;;;3.50;0.20;;;;;;;16.99;100.00;97680.34;6251743;22;20531;-77
2021/08/06 09:10:41;;;;;;;0.75;0.30;;;;;;;16.89;100.00;97685.81;6251358;22;20033;-76
2021/08/06 09:13:47;;;;;;;0.22;0.20;;;;;;;16.80;100.00;97685.69;6253184;22;20821;-76
2021/08/06 09:17:02;;;;;;;3.65;0.25;;;;;;;16.67;100.00;97689.53;6253799;22;20085;-77
2021/08/06 09:20:09;;;;;;;0.93;0.20;;;;;;;16.62;100.00;97685.59;6256804;22;20025;-76
2021/08/06 09:23:34;;;;;;;0.20;0.03;;;;;;;16.54;100.00;97687.72;6252482;22;20478;-77
2021/08/06 09:26:43;;;;;;;1.05;0.28;;;;;;;16.63;100.00;97684.28;6250837;22;20329;-77
2021/08/06 09:29:46;;;;;;;3.10;0.40;;;;;;;16.90;100.00;97687.31;6252078;22;20031;-78
2021/08/06 09:32:54;;;;;;;1.02;0.30;;;;;;;17.24;100.00;97692.34;6251624;22;20052;-77
2021/08/06 09:36:17;;;;;;;1.30;0.25;;;;;;;17.86;100.00;97686.41;6235088;22;20029;-77
2021/08/06 09:39:21;;;;;;;0.25;0.08;;;;;;;18.30;100.00;97683.69;6252586;22;20022;-76
2021/08/06 09:42:25;;;;;;;0.55;0.20;;;;;;;18.38;100.00;97683.59;6253705;22;20045;-77
2021/08/06 09:45:35;;;;;;;0.85;0.20;;;;;;;18.30;100.00;97677.31;6253393;22;20134;-76
2021/08/06 09:48:38;;;;;;;0.57;0.43;;;;;;;18.07;100.00;97681.13;6252426;22;20104;-77
2021/08/06 09:51:43;;;;;;;2.03;0.30;;;;;;;17.82;100.00;97683.25;6255178;22;20080;-76
2021/08/06 09:54:50;;;;;;;2.65;0.17;;;;;;;17.80;100.00;97680.25;6252728;22;21108;-76
2021/08/06 09:57:55;;;;;;;0.77;0.10;;;;;;;17.78;100.00;97682.91;6252849;22;20061;-77
2021/08/06 10:01:03;;;;;;;0.85;0.50;;;;;;;17.65;100.00;97688.84;6233475;22;20963;-78
2021/08/06 10:04:14;;;;;;;2.58;1.30;;;;;;;17.79;100.00;97687.22;6252997;22;20023;-79
2021/08/06 10:07:18;;;;;;;7.00;2.88;;;;;;;17.80;100.00;97690.81;6233378;22;20847;-78
2021/08/06 10:10:29;;;;;;;4.28;0.88;;;;;;;17.64;100.00;97697.88;6251948;22;20672;-78
2021/08/06 10:13:33;;;;;;;1.10;0.43;;;;;;;17.63;100.00;97702.75;6232567;22;21012;-78
2021/08/06 10:16:36;;;;;;;0.43;0.20;;;;;;;17.57;100.00;97713.50;6251944;22;20046;-78
2021/08/06 10:19:39;;;;;;;3.63;0.50;;;;;;;17.35;100.00;97717.22;6252126;22;20026;-78
2021/08/06 10:22:43;;;;;;;0.43;0.28;;;;;;;17.59;100.00;97713.69;6252131;22;20050;-78
2021/08/06 10:25:47;;;;;;;0.20;0.10;;;;;;;17.93;100.00;97713.75;6252070;22;20021;-78
2021/08/06 10:28:51;;;;;;;0.35;0.20;;;;;;;18.09;100.00;97698.19;6232725;22;20423;-76
2021/08/06 10:32:13;;;;;;;1.23;0.10;;;;;;;17.85;100.00;97718.72;6233864;22;20022;-76
2021/08/06 10:35:18;;;;;;;0.45;0.10;;;;;;;17.58;100.00;97719.91;6252960;22;20053;-75
2021/08/06 10:38:42;;;;;;;2.03;0.10;;;;;;;17.24;100.00;97734.53;6252629;22;20095;-77
2021/08/06 10:41:50;;;;;;;2.28;0.20;;;;;;;17.20;100.00;97731.38;6254394;22;20027;-76
2021/08/06 10:44:59;;;;;;;0.20;0.10;;;;;;;17.16;100.00;97736.66;6255105;22;20053;-76
2021/08/06 10:48:02;;;;;;;0.20;0.20;;;;;;;17.16;100.00;97740.22;6254150;22;20157;-76
2021/08/06 10:51:17;;;;;;;1.73;0.20;;;;;;;17.28;100.00;97748.97;6254754;22;20030;-75
2021/08/06 10:54:27;;;;;;;0.95;0.30;;;;;;;17.72;100.00;97738.72;6254847;22;20143;-76
2021/08/06 10:57:37;;;;;;;0.95;0.20;;;;;;;17.93;100.00;97741.19;6254765;22;21137;-76
2021/08/06 11:00:40;;;;;;;9.70;2.15;;;;;;;18.09;100.00;97737.63;6254550;22;20096;-76
2021/08/06 11:03:44;;;;;;;3.65;0.85;;;;;;;18.49;100.00;97722.59;6257141;22;20145;-77
2021/08/06 11:06:52;;;;;;;2.60;0.35;;;;;;;19.23;100.00;97733.47;6256801;22;20095;-75
2021/08/06 11:09:57;;;;;;;0.50;0.10;;;;;;;19.39;100.00;97715.75;6256703;22;20050;-77
2021/08/06 11:13:00;;;;;;;3.60;0.50;;;;;;;18.82;100.00;97737.97;6257202;22;20023;-77
2021/08/06 11:16:09;;;;;;;1.27;0.30;;;;;;;18.21;100.00;97740.72;6254038;22;20509;-77
2021/08/06 11:19:12;;;;;;;0.63;0.10;;;;;;;17.78;100.00;97741.31;6253851;22;20232;-77
2021/08/06 11:22:31;;;;;;;0.82;0.10;;;;;;;17.80;100.00;97753.47;6235358;22;20123;-77
2021/08/06 11:25:34;;;;;;;0.82;0.13;;;;;;;18.49;100.00;97748.72;6253324;22;20027;-76
2021/08/06 11:28:37;;;;;;;0.75;0.40;;;;;;;18.82;100.00;97730.25;6254079;22;20030;-75
2021/08/06 11:31:41;;;;;;;0.30;0.17;;;;;;;18.75;100.00;97745.19;6253833;22;20743;-76
2021/08/06 11:34:56;;;;;;;0.35;0.10;;;;;;;18.67;100.00;97744.53;6253383;22;20677;-77
2021/08/06 11:38:05;;;;;;;0.45;0.25;;;;;;;18.68;100.00;97742.47;6253721;22;20027;-76
2021/08/06 11:41:08;;;;;;;0.28;0.10;;;;;;;18.70;100.00;97731.34;6253068;22;20214;-76
2021/08/06 11:44:11;;;;;;;0.10;0.10;;;;;;;18.75;100.00;97744.47;6253867;22;20081;-77
2021/08/06 11:47:15;;;;;;;6.13;0.52;;;;;;;18.84;100.00;97749.44;6253600;22;20104;-76
2021/08/06 11:50:34;;;;;;;0.05;0.00;;;;;;;18.78;100.00;97737.63;6253141;22;20026;-76
2021/08/06 11:53:37;;;;;;;0.10;0.00;;;;;;;18.63;100.00;97749.09;6253110;22;20038;-77
2021/08/06 11:56:40;;;;;;;0.30;0.20;;;;;;;18.11;100.00;97757.53;6253923;22;20076;-77
2021/08/06 11:59:43;;;;;;;0.75;0.20;;;;;;;17.62;100.00;97757.56;6253422;22;20112;-77
2021/08/06 12:03:18;;;;;;;0.20;0.13;;;;;;;17.17;100.00;97771.91;6253955;22;21020;-77
2021/08/06 12:06:23;;;;;;;0.40;0.20;;;;;;;16.96;100.00;97777.06;6255341;22;20378;-78
2021/08/06 12:09:25;;;;;;;0.32;0.25;;;;;;;17.03;100.00;97781.91;6255558;22;20022;-77
2021/08/06 12:12:29;;;;;;;0.10;0.10;;;;;;;17.03;100.00;97782.69;6254403;22;20030;-78
2021/08/06 12:15:33;;;;;;;0.45;0.25;;;;;;;17.31;100.00;97795.66;6253229;22;20096;-77
2021/08/06 12:19:00;;;;;;;0.68;0.10;;;;;;;17.36;100.00;97783.44;6252759;22;20030;-77
2021/08/06 12:22:04;;;;;;;0.25;0.13;;;;;;;17.49;100.00;97777.53;6253109;22;21257;-77
2021/08/06 12:25:13;;;;;;;3.65;0.05;;;;;;;17.20;100.00;97771.50;6253442;22;20103;-76
2021/08/06 12:28:20;;;;;;;6.87;0.30;;;;;;;17.50;100.00;97773.41;6253916;22;20031;-77
2021/08/06 12:31:29;;;;;;;2.28;0.55;;;;;;;17.70;100.00;97783.59;6252236;22;20274;-77
2021/08/06 12:34:38;;;;;;;1.67;0.40;;;;;;;18.12;100.00;97770.28;6252089;22;20026;-77
2021/08/06 12:37:41;;;;;;;3.00;0.20;;;;;;;18.68;100.00;97784.75;6248763;22;20069;-77
2021/08/06 12:40:44;;;;;;;1.10;0.57;;;;;;;18.63;100.00;97771.66;6254898;22;20053;-77
2021/08/06 12:43:47;;;;;;;3.30;0.95;;;;;;;19.06;100.00;97781.50;6251968;22;21092;-78
2021/08/06 12:47:00;;;;;;;0.55;0.15;;;;;;;19.17;100.00;97778.88;6257500;22;20287;-76
2021/08/06 12:50:05;;;;;;;0.65;0.38;;;;;;;19.65;100.00;97771.44;6253590;22;20081;-77
2021/08/06 12:53:11;;;;;;;1.23;0.70;;;;;;;19.79;100.00;97782.34;6254942;22;20635;-76
2021/08/06 12:56:14;;;;;;;1.55;0.20;;;;;;;19.59;100.00;97802.03;6254756;22;20026;-76
2021/08/06 12:59:19;;;;;;;0.85;0.10;;;;;;;19.30;100.00;97794.69;6253381;22;21204;-76
2021/08/06 13:02:22;;;;;;;1.88;0.10;;;;;;;19.18;100.00;97802.97;6254888;22;20629;-75
2021/08/06 13:05:26;;;;;;;2.75;0.10;;;;;;;18.87;100.00;97813.88;6252548;22;20611;-77
2021/08/06 13:08:43;;;;;;;0.38;0.38;;;;;;;18.54;100.00;97808.97;6251505;22;20736;-75
2021/08/06 13:12:09;;;;;;;0.63;0.30;;;;;;;18.27;100.00;97811.66;6231036;22;20266;-77
2021/08/06 13:15:12;;;;;;;6.53;0.30;;;;;;;18.63;100.00;97822.41;6249366;22;20616;-77
2021/08/06 13:18:16;;;;;;;1.48;0.20;;;;;;;19.27;100.00;97810.75;6249312;22;20211;-76
2021/08/06 13:21:19;;;;;;;3.33;0.32;;;;;;;19.34;100.00;97815.53;6248595;22;20023;-79
2021/08/06 13:24:22;;;;;;;4.78;0.20;;;;;;;18.96;100.00;97815.28;6247489;22;20025;-77
2021/08/06 13:27:26;;;;;;;0.25;0.17;;;;;;;18.65;100.00;97816.94;6248241;22;21112;-77
2021/08/06 13:30:29;;;;;;;2.67;0.10;;;;;;;18.79;100.00;97820.94;6248304;22;20038;-77
2021/08/06 13:33:34;;;;;;;0.47;0.20;;;;;;;19.11;100.00;97826.38;6249055;22;20108;-76
2021/08/06 13:36:37;;;;;;;0.95;0.08;;;;;;;19.49;100.00;97832.28;6248959;22;20042;-80
2021/08/06 13:39:40;;;;;;;3.13;0.32;;;;;;;19.44;100.00;97819.19;6249973;22;20030;-78
2021/08/06 13:42:43;;;;;;;0.20;0.10;;;;;;;19.59;100.00;97827.44;6253424;22;20023;-77
2021/08/06 13:45:46;;;;;;;0.30;0.30;;;;;;;19.34;100.00;97831.72;6250862;22;20333;-76
2021/08/06 13:48:50;;;;;;;1.98;0.22;;;;;;;19.05;100.00;97836.41;6249166;22;20967;-77
2021/08/06 13:51:53;;;;;;;1.45;0.35;;;;;;;18.79;100.00;97838.59;6231178;22;20058;-78
2021/08/06 13:54:56;;;;;;;1.00;0.10;;;;;;;18.78;100.00;97845.56;6249666;22;20030;-77
2021/08/06 13:57:59;;;;;;;1.52;0.10;;;;;;;18.69;100.00;97848.31;6250023;22;20031;-76
2021/08/06 14:01:03;;;;;;;5.90;0.40;;;;;;;18.54;100.00;97854.06;6250114;22;20080;-76
2021/08/06 14:04:06;;;;;;;1.48;0.28;;;;;;;18.76;100.00;97853.09;6248594;22;20077;-75
2021/08/06 14:07:12;;;;;;;1.35;0.10;;;;;;;18.62;100.00;97851.94;6249163;22;20348;-76
2021/08/06 14:10:15;;;;;;;0.35;0.00;;;;;;;18.22;100.00;97868.25;6248912;22;20022;-75
2021/08/06 14:13:18;;;;;;;2.47;0.10;;;;;;;18.07;100.00;97858.59;6247104;22;20112;-76
2021/08/06 14:16:21;;;;;;;0.35;0.10;;;;;;;17.86;100.00;97861.00;6249388;22;20103;-76
2021/08/06 14:19:24;;;;;;;8.57;0.50;;;;;;;17.72;100.00;97854.16;6248106;22;20069;-76